»·PEaware :: N24DF KPSP-KSMO

N24DF :: KPSP-KSMO

FLIGHT INFORMATION

Flight Status: Arrived
Operator: Privately registered:
United States
More flights under this callsign
Pilot: David F. (17152)
Aircraft: CESSNA 172 SKYHAWK
(C172)
More flights by this aircraft type
Origin: KPSP Palm Springs Intl
United States
Destination: KSMO Santa Monica Mun
United States
More flights between these airports :: More routes between these airports
Route: +PSP V388 PDZ V186 DARTS
File this flight plan on PilotEdge
Remarks: PBN / D2 DOF / 190211 REG / N017SB RMK / TCAS SIMBRIEF
Altitude:
(Current/Filed)
6,000ft
Speed:
(Current/Filed)
120kts
Departed: 10-Feb-19 07:56 PM
Arrived: 10-Feb-19 09:16 PM
Distance/Time
Traveled:
97nm/1:20
Distance/Time
To Go:
Arrived

Flight Plot

Page will automatically refresh every two minutes.


Map Options




Map Legend


Flown Route
Filed Route
Departure Airport
Arrival Airport
Navaid (VOR, NDB)
Fix

Horizontal Profiles

Position Reports

Time Latitude Longitude Heading Altitude Ground
Speed
10-Feb-19 19:11 33.825675 -116.509813 1 421ft 0kts
10-Feb-19 19:12 33.825675 -116.509813 1 421ft 0kts
10-Feb-19 19:13 33.825675 -116.509813 1 421ft 0kts
10-Feb-19 19:14 33.825675 -116.509813 1 421ft 0kts
10-Feb-19 19:15 33.825675 -116.509813 1 421ft 0kts
10-Feb-19 19:16 33.825675 -116.509813 1 421ft 0kts
10-Feb-19 19:17 33.825675 -116.509813 1 421ft 0kts
10-Feb-19 19:18 33.825675 -116.509813 1 421ft 0kts
10-Feb-19 19:19 33.825675 -116.509813 1 421ft 0kts
10-Feb-19 19:20 33.825675 -116.509813 1 421ft 0kts
10-Feb-19 19:21 33.825675 -116.509813 1 421ft 0kts
10-Feb-19 19:22 33.825675 -116.509813 1 421ft 0kts
10-Feb-19 19:23 33.825675 -116.509813 1 421ft 0kts
10-Feb-19 19:24 33.825675 -116.509813 1 421ft 0kts
10-Feb-19 19:25 33.825675 -116.509813 1 421ft 0kts
10-Feb-19 19:26 33.825675 -116.509813 1 421ft 0kts
10-Feb-19 19:27 33.825676 -116.509813 1 421ft 0kts
10-Feb-19 19:28 33.825676 -116.509813 1 421ft 0kts
10-Feb-19 19:29 33.825676 -116.509813 1 421ft 0kts
10-Feb-19 19:30 33.825676 -116.509813 1 421ft 0kts
10-Feb-19 19:31 33.825676 -116.509813 1 421ft 0kts
10-Feb-19 19:32 33.825676 -116.509813 1 421ft 0kts
10-Feb-19 19:33 33.825676 -116.509813 1 421ft 0kts
10-Feb-19 19:34 33.825676 -116.509813 1 421ft 0kts
10-Feb-19 19:35 33.825689 -116.509813 1 421ft 0kts
10-Feb-19 19:36 33.825689 -116.509813 1 421ft 0kts
10-Feb-19 19:37 33.825689 -116.509813 1 421ft 0kts
10-Feb-19 19:38 33.825689 -116.509813 1 421ft 0kts
10-Feb-19 19:39 33.825689 -116.509813 1 421ft 0kts
10-Feb-19 19:40 33.825689 -116.509813 1 421ft 0kts
10-Feb-19 19:41 33.825689 -116.509813 1 421ft 0kts
10-Feb-19 19:42 33.825689 -116.509813 1 421ft 0kts
10-Feb-19 19:43 33.825689 -116.509813 1 421ft 0kts
10-Feb-19 19:44 33.825689 -116.509813 1 421ft 0kts
10-Feb-19 19:45 33.825725 -116.509823 332 422ft 2kts
10-Feb-19 19:46 33.825854 -116.507280 59 417ft 10kts
10-Feb-19 19:47 33.824355 -116.504981 142 413ft 11kts
10-Feb-19 19:48 33.821141 -116.502110 143 403ft 14kts
10-Feb-19 19:49 33.818521 -116.499297 89 396ft 8kts
10-Feb-19 19:50 33.818521 -116.498891 91 395ft 0kts
10-Feb-19 19:51 33.818521 -116.498891 91 395ft 0kts
10-Feb-19 19:52 33.818521 -116.498891 91 395ft 0kts
10-Feb-19 19:53 33.818521 -116.498891 91 395ft 0kts
10-Feb-19 19:54 33.819437 -116.498511 322 395ft 21kts
10-Feb-19 19:55 33.834100 -116.512517 321 1057ft 79kts
10-Feb-19 19:56 33.851809 -116.530111 322 2081ft 80kts
10-Feb-19 19:57 33.869696 -116.547431 312 3030ft 82kts
10-Feb-19 19:58 33.888274 -116.564741 323 3778ft 93kts
10-Feb-19 19:59 33.903706 -116.548174 85 4488ft 99kts
10-Feb-19 20:00 33.897312 -116.514531 105 5207ft 100kts
10-Feb-19 20:01 33.887136 -116.482203 107 5926ft 99kts
10-Feb-19 20:02 33.876791 -116.450343 107 6581ft 101kts
10-Feb-19 20:03 33.865478 -116.419114 113 7176ft 103kts
10-Feb-19 20:05 33.852757 -116.389038 114 7764ft 101kts
10-Feb-19 20:06 33.839428 -116.357705 115 8337ft 103kts
10-Feb-19 20:07 33.825712 -116.325519 116 8846ft 105kts
10-Feb-19 20:08 33.811899 -116.293135 116 9351ft 104kts
10-Feb-19 20:09 33.812151 -116.264065 4 9862ft 89kts
10-Feb-19 20:10 33.832212 -116.284354 271 9957ft 110kts
10-Feb-19 20:11 33.834690 -116.324260 282 9959ft 118kts
10-Feb-19 20:12 33.843323 -116.363331 287 9964ft 115kts
10-Feb-19 20:13 33.853524 -116.401478 289 9971ft 115kts
10-Feb-19 20:14 33.864111 -116.439438 289 9972ft 115kts
10-Feb-19 20:15 33.874782 -116.477316 289 9972ft 115kts
10-Feb-19 20:16 33.885304 -116.514631 289 9970ft 115kts
10-Feb-19 20:17 33.896010 -116.552614 289 9971ft 115kts
10-Feb-19 20:18 33.906618 -116.590308 289 9972ft 115kts
10-Feb-19 20:19 33.917026 -116.627327 289 9972ft 115kts
10-Feb-19 20:20 33.927011 -116.662924 289 9976ft 115kts
10-Feb-19 20:21 33.937860 -116.701580 289 9846ft 118kts
10-Feb-19 20:22 33.947421 -116.739108 275 9857ft 117kts
10-Feb-19 20:23 33.947105 -116.778445 265 9866ft 117kts
10-Feb-19 20:24 33.945943 -116.817532 266 9874ft 117kts
10-Feb-19 20:25 33.944649 -116.856465 265 9885ft 116kts
10-Feb-19 20:25 33.943551 -116.888792 267 9889ft 116kts
10-Feb-19 20:26 33.942289 -116.925889 265 9891ft 114kts
10-Feb-19 20:28 33.940731 -116.970342 264 9892ft 113kts
10-Feb-19 20:29 33.939403 -117.007871 264 9891ft 112kts
10-Feb-19 20:29 33.938308 -117.038835 263 9893ft 111kts
10-Feb-19 20:30 33.936996 -117.075752 263 9893ft 110kts
10-Feb-19 20:31 33.935650 -117.112541 261 9888ft 109kts
10-Feb-19 20:33 33.934103 -117.154999 262 9896ft 109kts
10-Feb-19 20:33 33.932799 -117.186049 262 9638ft 114kts
10-Feb-19 20:34 33.931168 -117.224901 262 9137ft 116kts
10-Feb-19 20:35 33.929505 -117.263664 263 8641ft 116kts
10-Feb-19 20:36 33.927803 -117.302712 263 8144ft 117kts
10-Feb-19 20:37 33.926070 -117.342149 264 7635ft 119kts
10-Feb-19 20:38 33.924449 -117.381817 264 6935ft 118kts
10-Feb-19 20:39 33.922826 -117.422031 265 6224ft 119kts
10-Feb-19 20:40 33.921169 -117.462098 264 5898ft 112kts
10-Feb-19 20:41 33.919518 -117.501079 265 5898ft 113kts
10-Feb-19 20:42 33.922731 -117.539777 286 5898ft 116kts
10-Feb-19 20:43 33.935282 -117.577349 288 5897ft 116kts
10-Feb-19 20:44 33.948205 -117.614439 288 5896ft 115kts
10-Feb-19 20:45 33.960949 -117.650705 288 5895ft 115kts
10-Feb-19 20:46 33.973595 -117.686621 287 5895ft 116kts
10-Feb-19 20:47 33.986159 -117.722327 287 5894ft 115kts
10-Feb-19 20:48 33.998713 -117.758197 286 5893ft 115kts
10-Feb-19 20:49 34.009945 -117.794135 285 5892ft 114kts
10-Feb-19 20:50 34.021103 -117.830070 286 5891ft 113kts
10-Feb-19 20:51 34.032117 -117.865664 286 5891ft 113kts
10-Feb-19 20:52 34.043133 -117.901305 285 5891ft 113kts
10-Feb-19 20:53 34.054118 -117.936938 285 5891ft 114kts
10-Feb-19 20:54 34.065154 -117.972775 285 5891ft 114kts
10-Feb-19 20:55 34.076241 -118.008824 285 5890ft 114kts
10-Feb-19 20:56 34.087405 -118.045158 285 5890ft 115kts
10-Feb-19 20:57 34.098629 -118.081734 285 5889ft 116kts
10-Feb-19 20:58 34.109915 -118.118560 284 5875ft 118kts
10-Feb-19 20:59 34.109594 -118.156488 279 5871ft 118kts
10-Feb-19 21:00 34.129274 -118.189535 295 5868ft 124kts
10-Feb-19 21:01 34.143187 -118.227615 284 5555ft 126kts
10-Feb-19 21:02 34.151697 -118.267677 247 4849ft 114kts
10-Feb-19 21:03 34.137200 -118.299904 246 4125ft 109kts
10-Feb-19 21:04 34.120244 -118.327403 220 3426ft 98kts
10-Feb-19 21:05 34.101041 -118.350301 220 2793ft 96kts
10-Feb-19 21:06 34.082717 -118.372048 221 2197ft 91kts
10-Feb-19 21:07 34.067859 -118.397050 235 1769ft 93kts
10-Feb-19 21:08 34.058535 -118.423301 261 1412ft 94kts
10-Feb-19 21:09 34.054432 -118.447964 221 1153ft 87kts
10-Feb-19 21:10 34.037961 -118.469312 226 1026ft 86kts
10-Feb-19 21:11 34.021407 -118.490376 224 838ft 93kts
10-Feb-19 21:12 34.004167 -118.490145 130 870ft 71kts
10-Feb-19 21:13 34.004272 -118.466193 68 449ft 74kts
10-Feb-19 21:14 34.015027 -118.452193 51 136ft 49kts
10-Feb-19 21:15 34.018325 -118.447862 136 136ft 4kts
10-Feb-19 21:16 34.018060 -118.447631 184 136ft 5kts
10-Feb-19 21:17 34.017749 -118.447684 316 136ft 0kts

Navigation Log

Ident Type
Flight plan parsing failed, navigation log unavailable